sensor_id;sensor_type;location;lat;lon;timestamp;temperature;humidity
30381;DHT22;17169;50.966;11.038;2023-04-07T00:02:37;5.00;82.30
30381;DHT22;17169;50.966;11.038;2023-04-07T00:05:39;4.90;82.40
30381;DHT22;17169;50.966;11.038;2023-04-07T00:08:41;4.90;82.60
30381;DHT22;17169;50.966;11.038;2023-04-07T00:11:44;4.90;83.30
30381;DHT22;17169;50.966;11.038;2023-04-07T00:14:46;4.80;83.10
30381;DHT22;17169;50.966;11.038;2023-04-07T00:17:50;4.70;83.40
30381;DHT22;17169;50.966;11.038;2023-04-07T00:20:52;4.70;83.60
30381;DHT22;17169;50.966;11.038;2023-04-07T00:23:55;4.60;84.10
30381;DHT22;17169;50.966;11.038;2023-04-07T00:26:57;4.60;84.30
30381;DHT22;17169;50.966;11.038;2023-04-07T00:30:00;4.60;84.30
30381;DHT22;17169;50.966;11.038;2023-04-07T00:33:04;4.60;84.40
30381;DHT22;17169;50.966;11.038;2023-04-07T00:36:06;4.50;84.70
30381;DHT22;17169;50.966;11.038;2023-04-07T00:39:09;4.50;84.90
30381;DHT22;17169;50.966;11.038;2023-04-07T00:42:11;4.50;85.00
30381;DHT22;17169;50.966;11.038;2023-04-07T00:45:14;4.40;85.10
30381;DHT22;17169;50.966;11.038;2023-04-07T00:48:17;4.40;85.10
30381;DHT22;17169;50.966;11.038;2023-04-07T00:51:20;4.40;85.40
30381;DHT22;17169;50.966;11.038;2023-04-07T00:54:23;4.40;85.50
30381;DHT22;17169;50.966;11.038;2023-04-07T00:57:25;4.30;85.80
30381;DHT22;17169;50.966;11.038;2023-04-07T01:00:28;4.20;85.70
30381;DHT22;17169;50.966;11.038;2023-04-07T01:03:35;4.20;85.80
30381;DHT22;17169;50.966;11.038;2023-04-07T01:06:44;4.20;85.90
30381;DHT22;17169;50.966;11.038;2023-04-07T01:09:53;4.20;86.20
30381;DHT22;17169;50.966;11.038;2023-04-07T01:13:00;4.20;86.20
30381;DHT22;17169;50.966;11.038;2023-04-07T01:16:08;4.20;86.10
30381;DHT22;17169;50.966;11.038;2023-04-07T01:19:19;4.20;86.30
30381;DHT22;17169;50.966;11.038;2023-04-07T01:22:36;4.20;86.20
30381;DHT22;17169;50.966;11.038;2023-04-07T01:25:58;4.20;86.80
30381;DHT22;17169;50.966;11.038;2023-04-07T01:29:29;4.20;86.20
30381;DHT22;17169;50.966;11.038;2023-04-07T01:32:34;4.10;86.10
30381;DHT22;17169;50.966;11.038;2023-04-07T01:35:37;4.10;86.50
30381;DHT22;17169;50.966;11.038;2023-04-07T01:38:41;4.00;87.10
30381;DHT22;17169;50.966;11.038;2023-04-07T01:41:44;3.90;87.30
30381;DHT22;17169;50.966;11.038;2023-04-07T01:44:50;3.90;87.60
30381;DHT22;17169;50.966;11.038;2023-04-07T01:47:53;3.90;87.80
30381;DHT22;17169;50.966;11.038;2023-04-07T01:50:56;3.80;88.20
30381;DHT22;17169;50.966;11.038;2023-04-07T01:54:01;3.80;88.60
30381;DHT22;17169;50.966;11.038;2023-04-07T01:57:03;3.80;88.90
30381;DHT22;17169;50.966;11.038;2023-04-07T02:00:08;3.80;89.10
30381;DHT22;17169;50.966;11.038;2023-04-07T02:03:12;3.70;89.10
30381;DHT22;17169;50.966;11.038;2023-04-07T02:06:23;3.70;89.50
30381;DHT22;17169;50.966;11.038;2023-04-07T02:09:30;3.70;89.80
30381;DHT22;17169;50.966;11.038;2023-04-07T02:12:34;3.70;90.00
30381;DHT22;17169;50.966;11.038;2023-04-07T02:15:39;3.60;90.20
30381;DHT22;17169;50.966;11.038;2023-04-07T02:18:42;3.60;90.30
30381;DHT22;17169;50.966;11.038;2023-04-07T02:21:47;3.60;90.30
30381;DHT22;17169;50.966;11.038;2023-04-07T02:24:51;3.50;90.40
30381;DHT22;17169;50.966;11.038;2023-04-07T02:27:55;3.30;90.40
30381;DHT22;17169;50.966;11.038;2023-04-07T02:30:59;3.30;90.40
30381;DHT22;17169;50.966;11.038;2023-04-07T02:34:01;3.20;90.60
30381;DHT22;17169;50.966;11.038;2023-04-07T02:37:03;3.20;90.60
30381;DHT22;17169;50.966;11.038;2023-04-07T02:40:07;3.10;90.50
30381;DHT22;17169;50.966;11.038;2023-04-07T02:43:09;3.10;90.70
30381;DHT22;17169;50.966;11.038;2023-04-07T02:46:13;3.10;90.70
30381;DHT22;17169;50.966;11.038;2023-04-07T02:49:15;3.10;90.80
30381;DHT22;17169;50.966;11.038;2023-04-07T02:52:18;3.10;90.80
30381;DHT22;17169;50.966;11.038;2023-04-07T02:55:20;3.10;90.50
30381;DHT22;17169;50.966;11.038;2023-04-07T02:58:22;3.00;90.50
30381;DHT22;17169;50.966;11.038;2023-04-07T03:01:26;3.00;90.60
30381;DHT22;17169;50.966;11.038;2023-04-07T03:04:28;3.00;90.80
30381;DHT22;17169;50.966;11.038;2023-04-07T03:07:31;2.90;90.80
30381;DHT22;17169;50.966;11.038;2023-04-07T03:10:34;2.90;90.90
30381;DHT22;17169;50.966;11.038;2023-04-07T03:13:36;2.80;90.90
30381;DHT22;17169;50.966;11.038;2023-04-07T03:16:40;2.80;91.00
30381;DHT22;17169;50.966;11.038;2023-04-07T03:19:42;2.70;91.10
30381;DHT22;17169;50.966;11.038;2023-04-07T03:22:44;2.70;91.20
30381;DHT22;17169;50.966;11.038;2023-04-07T03:25:47;2.60;91.30
30381;DHT22;17169;50.966;11.038;2023-04-07T03:28:49;2.60;91.50
30381;DHT22;17169;50.966;11.038;2023-04-07T03:31:53;2.60;91.60
30381;DHT22;17169;50.966;11.038;2023-04-07T03:34:55;2.50;91.70
30381;DHT22;17169;50.966;11.038;2023-04-07T03:37:58;2.50;91.80
30381;DHT22;17169;50.966;11.038;2023-04-07T03:41:00;2.50;91.90
30381;DHT22;17169;50.966;11.038;2023-04-07T03:44:02;2.50;91.90
30381;DHT22;17169;50.966;11.038;2023-04-07T03:47:06;2.40;91.90
30381;DHT22;17169;50.966;11.038;2023-04-07T03:50:09;2.40;92.10
30381;DHT22;17169;50.966;11.038;2023-04-07T03:53:11;2.40;92.20
30381;DHT22;17169;50.966;11.038;2023-04-07T03:56:16;2.40;92.50
30381;DHT22;17169;50.966;11.038;2023-04-07T03:59:18;2.40;92.30
30381;DHT22;17169;50.966;11.038;2023-04-07T04:02:22;2.30;92.40
30381;DHT22;17169;50.966;11.038;2023-04-07T04:05:24;2.30;92.60
30381;DHT22;17169;50.966;11.038;2023-04-07T04:08:28;2.30;92.60
30381;DHT22;17169;50.966;11.038;2023-04-07T04:11:30;2.20;92.70
30381;DHT22;17169;50.966;11.038;2023-04-07T04:14:32;2.10;92.80
30381;DHT22;17169;50.966;11.038;2023-04-07T04:17:36;2.20;92.90
30381;DHT22;17169;50.966;11.038;2023-04-07T04:20:39;2.10;93.00
30381;DHT22;17169;50.966;11.038;2023-04-07T04:23:41;2.10;93.10
30381;DHT22;17169;50.966;11.038;2023-04-07T04:26:43;2.00;93.30
30381;DHT22;17169;50.966;11.038;2023-04-07T04:29:46;1.90;93.30
30381;DHT22;17169;50.966;11.038;2023-04-07T04:32:50;2.00;93.60
30381;DHT22;17169;50.966;11.038;2023-04-07T04:35:52;2.00;93.50
30381;DHT22;17169;50.966;11.038;2023-04-07T04:38:55;2.00;93.50
30381;DHT22;17169;50.966;11.038;2023-04-07T04:41:57;2.00;93.60
30381;DHT22;17169;50.966;11.038;2023-04-07T04:44:59;2.00;93.70
30381;DHT22;17169;50.966;11.038;2023-04-07T04:48:03;2.00;93.90
30381;DHT22;17169;50.966;11.038;2023-04-07T04:51:06;2.00;94.00
30381;DHT22;17169;50.966;11.038;2023-04-07T04:54:08;1.90;94.10
30381;DHT22;17169;50.966;11.038;2023-04-07T04:57:11;1.90;94.20
30381;DHT22;17169;50.966;11.038;2023-04-07T05:00:14;2.00;94.20
30381;DHT22;17169;50.966;11.038;2023-04-07T05:03:17;2.00;94.30
30381;DHT22;17169;50.966;11.038;2023-04-07T05:06:20;2.00;94.20
30381;DHT22;17169;50.966;11.038;2023-04-07T05:09:22;2.00;94.30
30381;DHT22;17169;50.966;11.038;2023-04-07T05:12:24;2.00;94.30
30381;DHT22;17169;50.966;11.038;2023-04-07T05:15:27;2.00;94.30
30381;DHT22;17169;50.966;11.038;2023-04-07T05:18:30;2.00;94.50
30381;DHT22;17169;50.966;11.038;2023-04-07T05:21:33;2.10;94.50
30381;DHT22;17169;50.966;11.038;2023-04-07T05:24:35;2.10;94.60
30381;DHT22;17169;50.966;11.038;2023-04-07T05:27:37;2.10;94.70
30381;DHT22;17169;50.966;11.038;2023-04-07T05:30:41;2.10;94.70
30381;DHT22;17169;50.966;11.038;2023-04-07T05:33:44;2.20;94.80
30381;DHT22;17169;50.966;11.038;2023-04-07T05:36:47;2.30;94.80
30381;DHT22;17169;50.966;11.038;2023-04-07T05:39:49;2.40;94.80
30381;DHT22;17169;50.966;11.038;2023-04-07T05:42:51;2.40;94.70
30381;DHT22;17169;50.966;11.038;2023-04-07T05:45:54;2.40;94.80
30381;DHT22;17169;50.966;11.038;2023-04-07T05:48:57;2.40;94.90
30381;DHT22;17169;50.966;11.038;2023-04-07T05:52:00;2.40;94.80
30381;DHT22;17169;50.966;11.038;2023-04-07T05:55:04;2.40;94.70
30381;DHT22;17169;50.966;11.038;2023-04-07T05:58:06;2.30;94.60
30381;DHT22;17169;50.966;11.038;2023-04-07T06:01:09;2.30;94.60
30381;DHT22;17169;50.966;11.038;2023-04-07T06:04:13;2.40;94.60
30381;DHT22;17169;50.966;11.038;2023-04-07T06:07:15;2.40;94.40
30381;DHT22;17169;50.966;11.038;2023-04-07T06:10:17;2.40;94.40
30381;DHT22;17169;50.966;11.038;2023-04-07T06:13:20;2.50;94.30
30381;DHT22;17169;50.966;11.038;2023-04-07T06:16:22;2.50;94.20
30381;DHT22;17169;50.966;11.038;2023-04-07T06:19:26;2.60;94.10
30381;DHT22;17169;50.966;11.038;2023-04-07T06:22:28;2.80;94.00
30381;DHT22;17169;50.966;11.038;2023-04-07T06:25:30;2.90;93.80
30381;DHT22;17169;50.966;11.038;2023-04-07T06:28:33;3.10;93.80
30381;DHT22;17169;50.966;11.038;2023-04-07T06:31:35;3.30;93.70
30381;DHT22;17169;50.966;11.038;2023-04-07T06:34:39;3.40;93.50
30381;DHT22;17169;50.966;11.038;2023-04-07T06:37:41;3.60;93.00
30381;DHT22;17169;50.966;11.038;2023-04-07T06:40:44;3.70;92.90
30381;DHT22;17169;50.966;11.038;2023-04-07T06:43:48;3.80;92.70
30381;DHT22;17169;50.966;11.038;2023-04-07T06:46:51;3.90;92.60
30381;DHT22;17169;50.966;11.038;2023-04-07T06:49:56;3.90;92.40
30381;DHT22;17169;50.966;11.038;2023-04-07T06:52:59;4.10;92.30
30381;DHT22;17169;50.966;11.038;2023-04-07T06:56:05;4.10;91.90
30381;DHT22;17169;50.966;11.038;2023-04-07T06:59:08;4.20;91.90
30381;DHT22;17169;50.966;11.038;2023-04-07T07:02:10;4.30;92.10
30381;DHT22;17169;50.966;11.038;2023-04-07T07:05:14;4.40;91.90
30381;DHT22;17169;50.966;11.038;2023-04-07T07:08:16;4.60;91.80
30381;DHT22;17169;50.966;11.038;2023-04-07T07:11:19;4.80;91.40
30381;DHT22;17169;50.966;11.038;2023-04-07T07:14:21;4.90;91.30
30381;DHT22;17169;50.966;11.038;2023-04-07T07:17:23;5.10;91.40
30381;DHT22;17169;50.966;11.038;2023-04-07T07:20:27;5.30;91.00
30381;DHT22;17169;50.966;11.038;2023-04-07T07:23:29;5.50;90.90
30381;DHT22;17169;50.966;11.038;2023-04-07T07:26:32;5.60;90.60
30381;DHT22;17169;50.966;11.038;2023-04-07T07:29:34;5.80;90.30
30381;DHT22;17169;50.966;11.038;2023-04-07T07:32:36;5.90;89.60
30381;DHT22;17169;50.966;11.038;2023-04-07T07:35:40;6.10;90.00
30381;DHT22;17169;50.966;11.038;2023-04-07T07:38:43;6.40;89.10
30381;DHT22;17169;50.966;11.038;2023-04-07T07:41:45;6.50;88.60
30381;DHT22;17169;50.966;11.038;2023-04-07T07:44:47;6.70;87.80
30381;DHT22;17169;50.966;11.038;2023-04-07T07:47:51;6.90;87.20
30381;DHT22;17169;50.966;11.038;2023-04-07T07:50:54;7.00;86.20
30381;DHT22;17169;50.966;11.038;2023-04-07T07:53:57;7.20;85.90
30381;DHT22;17169;50.966;11.038;2023-04-07T07:56:59;7.30;85.80
30381;DHT22;17169;50.966;11.038;2023-04-07T08:00:03;7.50;85.40
30381;DHT22;17169;50.966;11.038;2023-04-07T08:03:06;7.70;84.60
30381;DHT22;17169;50.966;11.038;2023-04-07T08:06:09;7.80;84.20
30381;DHT22;17169;50.966;11.038;2023-04-07T08:09:13;7.90;82.90
30381;DHT22;17169;50.966;11.038;2023-04-07T08:12:15;8.00;83.50
30381;DHT22;17169;50.966;11.038;2023-04-07T08:15:17;8.10;83.40
30381;DHT22;17169;50.966;11.038;2023-04-07T08:18:20;8.20;83.00
30381;DHT22;17169;50.966;11.038;2023-04-07T08:21:23;8.30;82.50
30381;DHT22;17169;50.966;11.038;2023-04-07T08:24:27;8.40;82.70
30381;DHT22;17169;50.966;11.038;2023-04-07T08:27:30;8.50;82.10
30381;DHT22;17169;50.966;11.038;2023-04-07T08:30:32;8.70;82.90
30381;DHT22;17169;50.966;11.038;2023-04-07T08:33:34;8.80;82.30
30381;DHT22;17169;50.966;11.038;2023-04-07T08:36:38;8.90;81.40
30381;DHT22;17169;50.966;11.038;2023-04-07T08:39:41;9.00;81.70
30381;DHT22;17169;50.966;11.038;2023-04-07T08:42:46;9.10;81.20
30381;DHT22;17169;50.966;11.038;2023-04-07T08:45:49;9.20;81.60
30381;DHT22;17169;50.966;11.038;2023-04-07T08:48:55;9.40;81.40
30381;DHT22;17169;50.966;11.038;2023-04-07T08:52:00;9.50;81.00
30381;DHT22;17169;50.966;11.038;2023-04-07T08:55:06;9.60;80.80
30381;DHT22;17169;50.966;11.038;2023-04-07T08:58:08;9.60;81.10
30381;DHT22;17169;50.966;11.038;2023-04-07T09:01:12;9.70;80.90
30381;DHT22;17169;50.966;11.038;2023-04-07T09:04:16;9.80;80.50
30381;DHT22;17169;50.966;11.038;2023-04-07T09:07:19;9.80;80.00
30381;DHT22;17169;50.966;11.038;2023-04-07T09:10:22;9.90;78.70
30381;DHT22;17169;50.966;11.038;2023-04-07T09:13:24;9.90;78.70
30381;DHT22;17169;50.966;11.038;2023-04-07T09:16:28;10.00;80.00
30381;DHT22;17169;50.966;11.038;2023-04-07T09:19:32;10.20;80.10
30381;DHT22;17169;50.966;11.038;2023-04-07T09:22:37;10.20;78.40
30381;DHT22;17169;50.966;11.038;2023-04-07T09:25:39;10.30;79.90
30381;DHT22;17169;50.966;11.038;2023-04-07T09:28:42;10.40;79.30
30381;DHT22;17169;50.966;11.038;2023-04-07T09:31:46;10.40;78.90
30381;DHT22;17169;50.966;11.038;2023-04-07T09:34:58;10.50;79.70
30381;DHT22;17169;50.966;11.038;2023-04-07T09:38:03;10.60;80.40
30381;DHT22;17169;50.966;11.038;2023-04-07T09:41:07;10.60;79.90
30381;DHT22;17169;50.966;11.038;2023-04-07T09:44:09;10.60;80.60
30381;DHT22;17169;50.966;11.038;2023-04-07T09:47:12;10.70;80.90
30381;DHT22;17169;50.966;11.038;2023-04-07T09:50:14;10.80;81.00
30381;DHT22;17169;50.966;11.038;2023-04-07T09:53:19;10.90;81.20
30381;DHT22;17169;50.966;11.038;2023-04-07T09:56:23;10.90;80.30
30381;DHT22;17169;50.966;11.038;2023-04-07T09:59:25;11.00;81.70
30381;DHT22;17169;50.966;11.038;2023-04-07T10:02:28;11.10;81.10
30381;DHT22;17169;50.966;11.038;2023-04-07T10:05:31;11.20;79.70
30381;DHT22;17169;50.966;11.038;2023-04-07T10:08:38;11.20;78.90
30381;DHT22;17169;50.966;11.038;2023-04-07T10:11:40;11.30;78.80
30381;DHT22;17169;50.966;11.038;2023-04-07T10:14:44;11.50;78.20
30381;DHT22;17169;50.966;11.038;2023-04-07T10:17:48;11.50;77.40
30381;DHT22;17169;50.966;11.038;2023-04-07T10:20:53;11.60;77.80
30381;DHT22;17169;50.966;11.038;2023-04-07T10:24:11;11.60;78.00
30381;DHT22;17169;50.966;11.038;2023-04-07T10:27:23;11.70;77.60
30381;DHT22;17169;50.966;11.038;2023-04-07T10:30:30;11.80;78.80
30381;DHT22;17169;50.966;11.038;2023-04-07T10:33:47;12.00;76.40
30381;DHT22;17169;50.966;11.038;2023-04-07T10:37:09;12.10;76.30
30381;DHT22;17169;50.966;11.038;2023-04-07T10:40:30;12.10;76.60
30381;DHT22;17169;50.966;11.038;2023-04-07T10:43:37;12.20;75.20
30381;DHT22;17169;50.966;11.038;2023-04-07T10:47:10;12.30;74.70
30381;DHT22;17169;50.966;11.038;2023-04-07T10:50:17;12.40;72.50
30381;DHT22;17169;50.966;11.038;2023-04-07T10:53:19;12.50;72.80
30381;DHT22;17169;50.966;11.038;2023-04-07T10:56:23;12.60;70.50
30381;DHT22;17169;50.966;11.038;2023-04-07T10:59:26;12.60;71.10
30381;DHT22;17169;50.966;11.038;2023-04-07T11:02:30;12.80;71.30
30381;DHT22;17169;50.966;11.038;2023-04-07T11:05:33;12.90;71.30
30381;DHT22;17169;50.966;11.038;2023-04-07T11:08:40;12.90;69.10
30381;DHT22;17169;50.966;11.038;2023-04-07T11:11:44;13.00;68.90
30381;DHT22;17169;50.966;11.038;2023-04-07T11:14:48;13.10;67.40
30381;DHT22;17169;50.966;11.038;2023-04-07T11:18:21;13.20;67.60
30381;DHT22;17169;50.966;11.038;2023-04-07T11:21:24;13.30;68.60
30381;DHT22;17169;50.966;11.038;2023-04-07T11:24:33;13.40;69.80
30381;DHT22;17169;50.966;11.038;2023-04-07T11:27:39;13.50;67.70
30381;DHT22;17169;50.966;11.038;2023-04-07T11:30:47;13.60;65.40
30381;DHT22;17169;50.966;11.038;2023-04-07T11:33:52;13.60;66.70
30381;DHT22;17169;50.966;11.038;2023-04-07T11:36:55;13.80;67.50
30381;DHT22;17169;50.966;11.038;2023-04-07T11:39:59;14.00;67.30
30381;DHT22;17169;50.966;11.038;2023-04-07T11:43:14;14.10;67.30
30381;DHT22;17169;50.966;11.038;2023-04-07T11:46:17;14.30;66.80
30381;DHT22;17169;50.966;11.038;2023-04-07T11:49:20;14.50;65.20
30381;DHT22;17169;50.966;11.038;2023-04-07T11:52:23;14.70;64.10
30381;DHT22;17169;50.966;11.038;2023-04-07T11:55:26;14.90;64.30
30381;DHT22;17169;50.966;11.038;2023-04-07T11:58:31;15.10;65.90
30381;DHT22;17169;50.966;11.038;2023-04-07T12:01:40;15.30;62.00
30381;DHT22;17169;50.966;11.038;2023-04-07T12:04:55;15.40;62.60
30381;DHT22;17169;50.966;11.038;2023-04-07T12:07:57;15.50;62.70
30381;DHT22;17169;50.966;11.038;2023-04-07T12:11:02;15.70;62.30
30381;DHT22;17169;50.966;11.038;2023-04-07T12:14:06;15.70;60.40
30381;DHT22;17169;50.966;11.038;2023-04-07T12:17:19;15.90;60.60
30381;DHT22;17169;50.966;11.038;2023-04-07T12:20:22;16.00;60.90
30381;DHT22;17169;50.966;11.038;2023-04-07T12:23:24;16.00;59.90
30381;DHT22;17169;50.966;11.038;2023-04-07T12:26:27;16.10;60.30
30381;DHT22;17169;50.966;11.038;2023-04-07T12:29:32;16.20;58.90
30381;DHT22;17169;50.966;11.038;2023-04-07T12:32:34;16.30;58.70
30381;DHT22;17169;50.966;11.038;2023-04-07T12:35:37;16.30;59.90
30381;DHT22;17169;50.966;11.038;2023-04-07T12:38:40;16.50;59.70
30381;DHT22;17169;50.966;11.038;2023-04-07T12:41:42;16.70;59.00
30381;DHT22;17169;50.966;11.038;2023-04-07T12:44:47;16.80;58.90
30381;DHT22;17169;50.966;11.038;2023-04-07T12:47:49;16.90;58.00
30381;DHT22;17169;50.966;11.038;2023-04-07T12:50:52;17.00;56.50
30381;DHT22;17169;50.966;11.038;2023-04-07T12:53:54;17.00;56.60
30381;DHT22;17169;50.966;11.038;2023-04-07T12:56:56;17.20;56.60
30381;DHT22;17169;50.966;11.038;2023-04-07T13:00:01;17.30;55.20
30381;DHT22;17169;50.966;11.038;2023-04-07T13:03:03;17.50;54.90
30381;DHT22;17169;50.966;11.038;2023-04-07T13:06:06;17.70;56.60
30381;DHT22;17169;50.966;11.038;2023-04-07T13:09:08;17.90;55.40
30381;DHT22;17169;50.966;11.038;2023-04-07T13:12:10;18.00;54.70
30381;DHT22;17169;50.966;11.038;2023-04-07T13:15:14;18.10;54.00
30381;DHT22;17169;50.966;11.038;2023-04-07T13:18:17;18.30;53.50
30381;DHT22;17169;50.966;11.038;2023-04-07T13:21:19;18.40;53.20
30381;DHT22;17169;50.966;11.038;2023-04-07T13:24:23;18.70;54.20
30381;DHT22;17169;50.966;11.038;2023-04-07T13:27:26;19.00;53.20
30381;DHT22;17169;50.966;11.038;2023-04-07T13:30:29;19.60;52.40
30381;DHT22;17169;50.966;11.038;2023-04-07T13:33:33;20.30;51.80
30381;DHT22;17169;50.966;11.038;2023-04-07T13:36:35;21.00;50.20
30381;DHT22;17169;50.966;11.038;2023-04-07T13:39:38;21.50;48.70
30381;DHT22;17169;50.966;11.038;2023-04-07T13:42:40;22.00;48.00
30381;DHT22;17169;50.966;11.038;2023-04-07T13:45:44;22.70;46.80
30381;DHT22;17169;50.966;11.038;2023-04-07T13:48:46;23.20;47.40
30381;DHT22;17169;50.966;11.038;2023-04-07T13:51:49;23.40;46.40
30381;DHT22;17169;50.966;11.038;2023-04-07T13:54:51;23.60;46.50
30381;DHT22;17169;50.966;11.038;2023-04-07T13:57:54;23.90;45.30
30381;DHT22;17169;50.966;11.038;2023-04-07T14:00:57;24.00;44.50
30381;DHT22;17169;50.966;11.038;2023-04-07T14:04:00;24.30;43.60
30381;DHT22;17169;50.966;11.038;2023-04-07T14:07:02;24.70;43.80
30381;DHT22;17169;50.966;11.038;2023-04-07T14:10:05;25.30;42.80
30381;DHT22;17169;50.966;11.038;2023-04-07T14:13:08;25.90;42.60
30381;DHT22;17169;50.966;11.038;2023-04-07T14:16:12;26.80;41.70
30381;DHT22;17169;50.966;11.038;2023-04-07T14:19:14;27.50;40.20
30381;DHT22;17169;50.966;11.038;2023-04-07T14:22:16;27.90;39.80
30381;DHT22;17169;50.966;11.038;2023-04-07T14:25:19;28.50;40.00
30381;DHT22;17169;50.966;11.038;2023-04-07T14:28:22;29.30;38.80
30381;DHT22;17169;50.966;11.038;2023-04-07T14:31:26;30.10;38.60
30381;DHT22;17169;50.966;11.038;2023-04-07T14:34:28;30.30;37.10
30381;DHT22;17169;50.966;11.038;2023-04-07T14:37:30;30.20;36.20
30381;DHT22;17169;50.966;11.038;2023-04-07T14:40:33;30.50;36.90
30381;DHT22;17169;50.966;11.038;2023-04-07T14:43:35;31.10;36.40
30381;DHT22;17169;50.966;11.038;2023-04-07T14:46:39;31.30;35.60
30381;DHT22;17169;50.966;11.038;2023-04-07T14:49:42;31.50;36.00
30381;DHT22;17169;50.966;11.038;2023-04-07T14:52:44;31.80;35.90
30381;DHT22;17169;50.966;11.038;2023-04-07T14:55:47;31.80;35.10
30381;DHT22;17169;50.966;11.038;2023-04-07T14:58:49;32.30;35.20
30381;DHT22;17169;50.966;11.038;2023-04-07T15:01:53;32.80;34.40
30381;DHT22;17169;50.966;11.038;2023-04-07T15:04:55;33.10;34.40
30381;DHT22;17169;50.966;11.038;2023-04-07T15:07:58;33.40;34.30
30381;DHT22;17169;50.966;11.038;2023-04-07T15:11:03;33.20;33.70
30381;DHT22;17169;50.966;11.038;2023-04-07T15:14:05;33.10;34.00
30381;DHT22;17169;50.966;11.038;2023-04-07T15:17:09;33.50;33.60
30381;DHT22;17169;50.966;11.038;2023-04-07T15:20:11;33.90;33.50
30381;DHT22;17169;50.966;11.038;2023-04-07T15:23:13;34.20;33.10
30381;DHT22;17169;50.966;11.038;2023-04-07T15:26:16;34.50;32.90
30381;DHT22;17169;50.966;11.038;2023-04-07T15:29:18;34.40;32.80
30381;DHT22;17169;50.966;11.038;2023-04-07T15:32:22;34.40;32.30
30381;DHT22;17169;50.966;11.038;2023-04-07T15:35:24;34.40;32.50
30381;DHT22;17169;50.966;11.038;2023-04-07T15:38:27;34.20;32.60
30381;DHT22;17169;50.966;11.038;2023-04-07T15:41:30;34.50;32.60
30381;DHT22;17169;50.966;11.038;2023-04-07T15:44:32;34.40;32.20
30381;DHT22;17169;50.966;11.038;2023-04-07T15:47:40;34.20;31.60
30381;DHT22;17169;50.966;11.038;2023-04-07T15:50:43;33.60;32.20
30381;DHT22;17169;50.966;11.038;2023-04-07T15:53:45;31.80;31.70
30381;DHT22;17169;50.966;11.038;2023-04-07T15:56:47;29.10;33.70
30381;DHT22;17169;50.966;11.038;2023-04-07T15:59:50;27.00;34.40
30381;DHT22;17169;50.966;11.038;2023-04-07T16:02:54;25.20;36.00
30381;DHT22;17169;50.966;11.038;2023-04-07T16:05:57;23.40;37.60
30381;DHT22;17169;50.966;11.038;2023-04-07T16:08:59;21.90;39.00
30381;DHT22;17169;50.966;11.038;2023-04-07T16:12:02;20.80;40.70
30381;DHT22;17169;50.966;11.038;2023-04-07T16:15:05;19.80;42.30
30381;DHT22;17169;50.966;11.038;2023-04-07T16:18:09;18.90;42.90
30381;DHT22;17169;50.966;11.038;2023-04-07T16:21:12;18.30;44.00
30381;DHT22;17169;50.966;11.038;2023-04-07T16:24:14;17.70;44.70
30381;DHT22;17169;50.966;11.038;2023-04-07T16:27:17;17.30;46.30
30381;DHT22;17169;50.966;11.038;2023-04-07T16:30:19;16.90;45.90
30381;DHT22;17169;50.966;11.038;2023-04-07T16:33:23;16.40;47.40
30381;DHT22;17169;50.966;11.038;2023-04-07T16:36:28;15.90;48.00
30381;DHT22;17169;50.966;11.038;2023-04-07T16:39:30;15.50;49.60
30381;DHT22;17169;50.966;11.038;2023-04-07T16:42:33;15.20;50.50
30381;DHT22;17169;50.966;11.038;2023-04-07T16:45:36;15.00;49.60
30381;DHT22;17169;50.966;11.038;2023-04-07T16:48:40;14.80;50.40
30381;DHT22;17169;50.966;11.038;2023-04-07T16:51:42;14.60;49.70
30381;DHT22;17169;50.966;11.038;2023-04-07T16:54:45;14.50;50.70
30381;DHT22;17169;50.966;11.038;2023-04-07T16:57:48;14.30;50.40
30381;DHT22;17169;50.966;11.038;2023-04-07T17:00:50;14.20;52.30
30381;DHT22;17169;50.966;11.038;2023-04-07T17:03:54;14.10;52.30
30381;DHT22;17169;50.966;11.038;2023-04-07T17:06:56;14.00;52.70
30381;DHT22;17169;50.966;11.038;2023-04-07T17:09:59;13.90;54.80
30381;DHT22;17169;50.966;11.038;2023-04-07T17:13:01;13.80;54.20
30381;DHT22;17169;50.966;11.038;2023-04-07T17:16:04;13.70;54.90
30381;DHT22;17169;50.966;11.038;2023-04-07T17:19:08;13.60;54.50
30381;DHT22;17169;50.966;11.038;2023-04-07T17:22:10;13.50;55.00
30381;DHT22;17169;50.966;11.038;2023-04-07T17:25:12;13.40;55.80
30381;DHT22;17169;50.966;11.038;2023-04-07T17:28:15;13.20;55.40
30381;DHT22;17169;50.966;11.038;2023-04-07T17:31:17;13.20;56.00
30381;DHT22;17169;50.966;11.038;2023-04-07T17:34:21;13.00;56.10
30381;DHT22;17169;50.966;11.038;2023-04-07T17:37:23;12.90;56.40
30381;DHT22;17169;50.966;11.038;2023-04-07T17:40:26;12.70;56.10
30381;DHT22;17169;50.966;11.038;2023-04-07T17:43:28;12.50;56.50
30381;DHT22;17169;50.966;11.038;2023-04-07T17:46:31;12.30;56.70
30381;DHT22;17169;50.966;11.038;2023-04-07T17:49:35;12.10;57.00
30381;DHT22;17169;50.966;11.038;2023-04-07T17:52:37;12.00;57.40
30381;DHT22;17169;50.966;11.038;2023-04-07T17:55:40;11.80;57.90
30381;DHT22;17169;50.966;11.038;2023-04-07T17:58:42;11.60;58.00
30381;DHT22;17169;50.966;11.038;2023-04-07T18:01:44;11.50;58.50
30381;DHT22;17169;50.966;11.038;2023-04-07T18:04:48;11.30;58.90
30381;DHT22;17169;50.966;11.038;2023-04-07T18:07:51;11.20;59.30
30381;DHT22;17169;50.966;11.038;2023-04-07T18:10:54;11.10;59.70
30381;DHT22;17169;50.966;11.038;2023-04-07T18:13:57;11.00;60.20
30381;DHT22;17169;50.966;11.038;2023-04-07T18:16:59;10.90;60.50
30381;DHT22;17169;50.966;11.038;2023-04-07T18:20:03;10.80;60.80
30381;DHT22;17169;50.966;11.038;2023-04-07T18:23:06;10.70;61.10
30381;DHT22;17169;50.966;11.038;2023-04-07T18:26:09;10.60;61.10
30381;DHT22;17169;50.966;11.038;2023-04-07T18:29:12;10.50;61.10
30381;DHT22;17169;50.966;11.038;2023-04-07T18:32:14;10.50;61.60
30381;DHT22;17169;50.966;11.038;2023-04-07T18:35:18;10.40;61.80
30381;DHT22;17169;50.966;11.038;2023-04-07T18:38:21;10.30;62.20
30381;DHT22;17169;50.966;11.038;2023-04-07T18:41:23;10.30;62.50
30381;DHT22;17169;50.966;11.038;2023-04-07T18:44:25;10.20;62.70
30381;DHT22;17169;50.966;11.038;2023-04-07T18:47:28;10.10;62.90
30381;DHT22;17169;50.966;11.038;2023-04-07T18:50:32;10.10;63.10
30381;DHT22;17169;50.966;11.038;2023-04-07T18:53:34;10.00;63.10
30381;DHT22;17169;50.966;11.038;2023-04-07T18:56:36;9.90;63.20
30381;DHT22;17169;50.966;11.038;2023-04-07T18:59:39;9.80;63.60
30381;DHT22;17169;50.966;11.038;2023-04-07T19:02:41;9.80;63.90
30381;DHT22;17169;50.966;11.038;2023-04-07T19:05:46;9.70;64.20
30381;DHT22;17169;50.966;11.038;2023-04-07T19:08:49;9.60;64.50
30381;DHT22;17169;50.966;11.038;2023-04-07T19:11:51;9.60;64.80